Time;durP1;ratioP1;P1;durP2;ratioP2;P2;SDS_P1;SDS_P2;PMS_P1;PMS_P2;Temp;Humidity;BMP_temperature;BMP_pressure;BME280_temperature;BME280_humidity;BME280_pressure;Samples;Min_cycle;Max_cycle;Signal;HPM_P1;HPM_P2
2021/12/10 00:01:23;;;;;;;35.58;9.35;;;;;;;2.42;93.65;99538.31;5014750;28;20030;-42
2021/12/10 00:03:52;;;;;;;34.97;10.23;;;;;;;2.41;93.98;99534.00;5015916;28;20093;-40
2021/12/10 00:06:24;;;;;;;30.45;10.23;;;;;;;2.45;94.04;99534.50;5014360;28;20072;-41
2021/12/10 00:08:56;;;;;;;33.40;9.68;;;;;;;2.44;94.04;99527.53;5015572;28;20045;-40
2021/12/10 00:11:35;;;;;;;30.98;9.95;;;;;;;2.45;93.70;99510.59;5015955;28;20026;-40
2021/12/10 00:14:01;;;;;;;29.92;10.48;;;;;;;2.50;93.45;99502.97;5023859;28;20028;-40
2021/12/10 00:16:26;;;;;;;42.55;11.70;;;;;;;2.48;93.88;99510.28;5019782;28;20029;-42
2021/12/10 00:18:57;;;;;;;38.15;12.07;;;;;;;2.49;93.45;99506.63;5015426;28;20045;-41
2021/12/10 00:21:24;;;;;;;39.78;11.80;;;;;;;2.51;93.58;99504.66;5015610;28;20030;-40
2021/12/10 00:23:51;;;;;;;41.30;12.57;;;;;;;2.57;92.92;99493.38;5015769;28;20102;-40
2021/12/10 00:26:20;;;;;;;32.47;12.00;;;;;;;2.53;92.75;99482.25;5015437;28;20030;-40
2021/12/10 00:28:47;;;;;;;31.40;12.93;;;;;;;2.51;93.04;99478.94;5015176;28;20079;-41
2021/12/10 00:31:18;;;;;;;29.10;12.15;;;;;;;2.51;93.08;99473.59;5014148;28;20030;-41
2021/12/10 00:33:54;;;;;;;47.25;11.95;;;;;;;2.56;92.46;99467.81;5015354;28;20381;-40
2021/12/10 00:36:20;;;;;;;31.83;12.02;;;;;;;2.54;92.47;99451.22;5013309;28;20041;-41
2021/12/10 00:38:45;;;;;;;41.58;12.35;;;;;;;2.46;93.05;99452.03;5013727;28;20037;-42
2021/12/10 00:41:11;;;;;;;27.63;12.43;;;;;;;2.52;92.12;99442.56;5030617;28;20033;-41
2021/12/10 00:43:37;;;;;;;32.38;13.00;;;;;;;2.47;92.66;99436.91;5015450;28;20080;-41
2021/12/10 00:46:02;;;;;;;33.50;13.68;;;;;;;2.48;92.17;99425.31;5015012;28;20053;-41
2021/12/10 00:48:28;;;;;;;38.17;13.68;;;;;;;2.41;92.90;99425.97;5015333;28;20054;-41
2021/12/10 00:50:56;;;;;;;35.25;13.73;;;;;;;2.39;92.69;99427.13;5015165;28;20026;-41
2021/12/10 00:53:22;;;;;;;30.50;14.70;;;;;;;2.42;92.68;99409.06;5013762;28;20417;-41
2021/12/10 00:55:47;;;;;;;29.80;14.40;;;;;;;2.42;92.85;99421.47;5014753;28;20038;-41
2021/12/10 00:58:14;;;;;;;40.88;15.68;;;;;;;2.40;92.99;99408.38;5015094;28;20529;-41
2021/12/10 01:00:44;;;;;;;24.45;10.68;;;;;;;2.39;92.84;99401.38;5013679;28;20036;-40
2021/12/10 01:03:12;;;;;;;41.15;15.10;;;;;;;2.46;92.65;99395.44;5015106;28;20029;-42
2021/12/10 01:05:39;;;;;;;30.00;12.82;;;;;;;2.42;92.49;99406.38;5013374;28;20038;-40
2021/12/10 01:08:04;;;;;;;33.60;12.50;;;;;;;2.42;92.69;99387.81;5014065;28;20516;-41
2021/12/10 01:10:34;;;;;;;32.97;12.43;;;;;;;2.48;92.20;99388.13;5014563;28;20033;-40
2021/12/10 01:13:01;;;;;;;30.05;12.20;;;;;;;2.46;92.22;99382.16;5014318;28;20500;-41
2021/12/10 01:24:16;;;;;;;39.03;13.80;;;;;;;2.40;91.85;99354.44;5027256;28;20438;-40
2021/12/10 01:29:19;;;;;;;32.33;13.48;;;;;;;2.39;91.57;99345.63;5014850;28;20497;-41
2021/12/10 01:31:47;;;;;;;33.78;14.70;;;;;;;2.39;92.09;99337.66;5014992;28;20025;-41
2021/12/10 01:34:13;;;;;;;25.02;13.07;;;;;;;2.41;92.20;99346.28;5014130;28;20100;-41
2021/12/10 01:36:39;;;;;;;26.83;13.43;;;;;;;2.47;92.23;99343.97;5028356;28;20026;-40
2021/12/10 01:39:09;;;;;;;36.35;14.35;;;;;;;2.50;91.36;99333.88;5013177;28;20029;-41
2021/12/10 01:41:39;;;;;;;26.17;11.48;;;;;;;2.45;91.15;99330.03;5013561;28;20469;-40
2021/12/10 01:44:15;;;;;;;26.85;12.00;;;;;;;2.40;91.22;99326.06;5013658;28;20603;-41
2021/12/10 01:46:41;;;;;;;29.98;11.98;;;;;;;2.45;91.56;99328.22;5014441;28;20033;-40
2021/12/10 01:49:09;;;;;;;32.45;11.20;;;;;;;2.39;91.23;99320.91;5013924;28;20026;-42
2021/12/10 01:51:36;;;;;;;28.58;11.27;;;;;;;2.41;91.07;99309.13;5014175;28;20105;-40
2021/12/10 01:54:06;;;;;;;25.33;11.65;;;;;;;2.36;91.18;99295.53;5013416;28;20037;-40
2021/12/10 01:56:34;;;;;;;25.65;11.10;;;;;;;2.41;91.55;99287.88;5013191;28;20366;-40
2021/12/10 01:59:02;;;;;;;31.23;11.13;;;;;;;2.41;90.84;99287.88;5013917;28;20390;-41
2021/12/10 02:01:33;;;;;;;30.50;10.55;;;;;;;2.42;90.95;99294.88;5013485;28;20034;-40
2021/12/10 02:04:00;;;;;;;26.88;11.35;;;;;;;2.40;90.50;99280.94;5028869;28;20381;-41
2021/12/10 02:06:25;;;;;;;29.13;11.10;;;;;;;2.50;90.97;99287.88;5013702;28;20046;-42
2021/12/10 02:08:51;;;;;;;26.60;11.25;;;;;;;2.46;90.03;99276.78;5012102;28;20069;-41
2021/12/10 02:11:18;;;;;;;28.95;10.75;;;;;;;2.42;90.96;99268.31;5013241;28;20119;-41
2021/12/10 02:13:45;;;;;;;26.13;10.98;;;;;;;2.40;90.25;99269.47;5011764;28;20062;-41
2021/12/10 02:16:10;;;;;;;29.60;11.40;;;;;;;2.42;90.49;99270.97;5013623;28;20048;-41
2021/12/10 02:18:35;;;;;;;19.85;8.30;;;;;;;2.37;90.59;99253.88;5012202;28;20176;-41
2021/12/10 02:21:01;;;;;;;23.85;9.52;;;;;;;2.41;90.73;99261.34;5012310;28;20080;-41
2021/12/10 02:23:27;;;;;;;20.88;10.25;;;;;;;2.41;90.27;99256.03;5024667;28;20072;-41
2021/12/10 02:25:53;;;;;;;23.60;9.90;;;;;;;2.41;90.61;99250.72;5014383;28;20034;-41
2021/12/10 02:28:19;;;;;;;25.13;8.98;;;;;;;2.46;90.42;99252.03;5013047;28;20046;-41
2021/12/10 02:30:45;;;;;;;23.80;9.00;;;;;;;2.50;90.09;99240.06;5013381;28;20129;-41
2021/12/10 02:33:11;;;;;;;25.27;9.07;;;;;;;2.52;90.19;99241.56;5013363;28;20029;-41
2021/12/10 02:35:37;;;;;;;19.90;8.27;;;;;;;2.51;89.81;99223.97;5013323;28;20030;-42
2021/12/10 02:38:04;;;;;;;20.48;8.05;;;;;;;2.57;90.47;99211.84;5011930;28;20125;-41
2021/12/10 02:40:30;;;;;;;18.40;8.27;;;;;;;2.61;89.30;99218.50;5013226;28;20394;-41
2021/12/10 02:42:59;;;;;;;21.67;7.88;;;;;;;2.66;89.00;99218.81;5012021;28;20070;-41
2021/12/10 02:45:25;;;;;;;23.23;7.85;;;;;;;2.71;89.16;99211.13;4995042;28;20033;-41
2021/12/10 02:47:52;;;;;;;22.10;7.53;;;;;;;2.75;89.04;99211.63;5013131;28;20026;-41
2021/12/10 02:50:21;;;;;;;24.80;7.80;;;;;;;2.73;88.63;99201.16;5013099;28;20453;-41
2021/12/10 02:52:46;;;;;;;21.92;7.85;;;;;;;2.78;88.74;99190.03;5012887;28;20025;-41
2021/12/10 02:55:15;;;;;;;21.65;6.95;;;;;;;2.81;89.07;99189.69;5012799;28;20038;-41
2021/12/10 02:57:42;;;;;;;19.88;6.43;;;;;;;2.84;89.65;99176.91;5012769;28;20444;-41
2021/12/10 03:00:10;;;;;;;15.35;7.32;;;;;;;2.82;89.27;99173.59;5011751;28;20421;-41
2021/12/10 03:02:36;;;;;;;16.30;5.95;;;;;;;2.80;89.84;99183.53;5012967;28;20029;-41
2021/12/10 03:05:04;;;;;;;18.10;6.05;;;;;;;2.78;89.51;99174.91;5011167;28;20125;-40
2021/12/10 03:07:30;;;;;;;16.13;5.93;;;;;;;2.80;90.15;99175.56;5013320;28;20173;-41
2021/12/10 03:09:55;;;;;;;19.33;6.15;;;;;;;2.89;89.95;99168.38;5013890;28;20053;-41
2021/12/10 03:12:21;;;;;;;22.10;5.03;;;;;;;2.86;90.16;99158.94;5013201;28;20076;-41
2021/12/10 03:14:50;;;;;;;19.13;5.57;;;;;;;2.88;89.85;99155.28;5012288;28;20389;-40
2021/12/10 03:17:21;;;;;;;19.33;6.05;;;;;;;2.90;90.57;99142.63;5012759;28;20030;-41
2021/12/10 03:19:46;;;;;;;19.58;5.47;;;;;;;2.95;89.89;99145.59;5013351;28;20046;-40
2021/12/10 03:22:12;;;;;;;15.45;5.38;;;;;;;2.85;90.24;99136.03;5011158;28;20230;-41
2021/12/10 03:24:37;;;;;;;16.80;4.90;;;;;;;2.90;90.29;99137.31;5012339;28;20551;-41
2021/12/10 03:27:06;;;;;;;11.50;4.57;;;;;;;2.85;89.45;99130.72;5012353;28;20044;-40
2021/12/10 03:29:35;;;;;;;17.92;5.38;;;;;;;2.90;90.77;99124.03;5012518;28;20436;-40
2021/12/10 03:32:03;;;;;;;15.10;5.47;;;;;;;2.88;90.29;99128.72;5011209;28;20030;-40
2021/12/10 03:34:28;;;;;;;16.50;5.70;;;;;;;2.81;91.33;99117.94;5011954;28;20397;-40
2021/12/10 03:36:54;;;;;;;21.75;5.47;;;;;;;2.81;91.74;99124.09;5012602;28;20033;-40
2021/12/10 03:39:23;;;;;;;17.63;5.97;;;;;;;2.84;92.56;99121.09;5012266;28;20038;-40
2021/12/10 03:41:50;;;;;;;16.05;5.68;;;;;;;2.77;93.29;99117.47;5012217;28;20458;-40
2021/12/10 03:44:15;;;;;;;16.42;5.65;;;;;;;2.77;93.34;99112.16;5010524;28;20090;-41
2021/12/10 03:46:43;;;;;;;17.95;7.00;;;;;;;2.73;94.05;99094.91;5011911;28;20457;-41
2021/12/10 03:49:09;;;;;;;15.55;5.85;;;;;;;2.67;94.26;99094.78;5010994;28;20393;-41
2021/12/10 03:51:35;;;;;;;16.90;6.10;;;;;;;2.59;94.94;99088.50;5012277;28;20033;-40
2021/12/10 03:54:02;;;;;;;16.20;5.70;;;;;;;2.64;94.68;99091.47;5010505;28;20060;-41
2021/12/10 03:56:30;;;;;;;29.15;6.78;;;;;;;2.63;94.28;99095.16;5012221;28;20367;-40
2021/12/10 03:58:58;;;;;;;16.38;6.32;;;;;;;2.65;94.92;99086.97;5012080;28;20113;-40
2021/12/10 04:01:27;;;;;;;15.75;6.32;;;;;;;2.59;94.63;99082.38;5026043;28;20038;-40
2021/12/10 04:03:52;;;;;;;;;;;;;;;2.60;95.07;99078.72;5011909;28;20026;-41
2021/12/10 04:06:18;;;;;;;17.65;5.20;;;;;;;2.66;94.38;99072.72;5012135;28;19924;-41
2021/12/10 04:08:44;;;;;;;16.08;5.65;;;;;;;2.62;94.43;99071.41;5011868;28;20026;-42
2021/12/10 04:11:10;;;;;;;19.80;6.10;;;;;;;2.66;94.58;99072.72;5011571;28;20117;-41
2021/12/10 04:13:36;;;;;;;18.95;5.82;;;;;;;2.61;94.57;99059.13;5011885;28;20377;-41
2021/12/10 04:16:03;;;;;;;22.38;6.00;;;;;;;2.62;94.42;99047.50;5011447;28;20037;-41
2021/12/10 04:18:29;;;;;;;17.23;5.63;;;;;;;2.62;94.63;99055.47;5010585;28;20037;-41
2021/12/10 04:20:54;;;;;;;17.80;6.25;;;;;;;2.60;95.01;99033.56;5011729;28;20022;-41
2021/12/10 04:23:21;;;;;;;20.30;5.10;;;;;;;2.60;94.53;99031.72;5010664;28;20188;-41
2021/12/10 04:25:47;;;;;;;20.63;6.03;;;;;;;2.61;95.32;99033.41;5011546;28;20026;-41
2021/12/10 04:28:19;;;;;;;15.32;5.63;;;;;;;2.61;95.33;99032.56;5011542;28;20385;-42
2021/12/10 04:30:46;;;;;;;20.02;4.88;;;;;;;2.58;95.32;99025.78;5010368;28;20030;-41
2021/12/10 04:33:15;;;;;;;20.27;5.00;;;;;;;2.63;94.67;99026.09;5012012;28;20022;-41
2021/12/10 04:35:42;;;;;;;9.38;5.38;;;;;;;2.57;95.44;99020.63;5012013;28;20084;-41
2021/12/10 04:38:08;;;;;;;15.30;5.43;;;;;;;2.65;95.25;99012.63;5011385;28;20037;-40
2021/12/10 04:40:33;;;;;;;27.05;5.68;;;;;;;2.58;94.85;99014.31;5011387;28;20034;-41
2021/12/10 04:42:59;;;;;;;22.42;5.75;;;;;;;2.62;94.92;99015.63;5012132;28;20052;-40
2021/12/10 04:45:25;;;;;;;12.73;5.20;;;;;;;2.61;95.27;99011.34;5015197;28;20044;-41
2021/12/10 04:47:50;;;;;;;17.30;5.40;;;;;;;2.63;94.77;99020.78;5014658;28;20430;-41
2021/12/10 04:50:18;;;;;;;14.85;4.85;;;;;;;2.65;94.28;98999.34;5014127;28;20041;-41
2021/12/10 04:52:44;;;;;;;13.93;4.78;;;;;;;2.66;94.22;98993.03;5015269;28;20084;-41
2021/12/10 04:55:12;;;;;;;14.82;4.65;;;;;;;2.71;94.42;98989.84;5014891;28;20076;-41
2021/12/10 04:57:38;;;;;;;;;;;;;;;2.71;94.49;98985.34;5014893;28;20036;-41
2021/12/10 05:00:05;;;;;;;12.38;4.47;;;;;;;2.72;93.39;98987.00;5014839;28;20288;-41
2021/12/10 05:02:33;;;;;;;9.15;3.80;;;;;;;2.76;92.78;98976.84;5014592;28;20076;-41
2021/12/10 05:04:58;;;;;;;16.30;3.83;;;;;;;2.77;93.16;98973.22;5014786;28;20030;-41
2021/12/10 05:07:24;;;;;;;13.07;3.53;;;;;;;2.75;92.69;98967.25;5013673;28;20381;-40
2021/12/10 05:09:50;;;;;;;13.48;3.47;;;;;;;2.79;93.14;98966.72;5014889;28;20087;-41
2021/12/10 05:12:16;;;;;;;15.32;3.97;;;;;;;2.80;93.38;98967.53;5014398;28;20425;-41
2021/12/10 05:14:41;;;;;;;14.00;3.75;;;;;;;2.84;92.71;98959.03;5013180;28;20204;-40
2021/12/10 05:17:08;;;;;;;12.48;3.42;;;;;;;2.80;92.27;98968.34;5012113;28;20034;-40
2021/12/10 05:19:38;;;;;;;10.73;3.00;;;;;;;2.81;92.07;98962.03;5011036;28;20073;-41
2021/12/10 05:22:06;;;;;;;13.68;3.63;;;;;;;2.78;92.23;98957.06;5014513;28;20393;-41
2021/12/10 05:24:32;;;;;;;14.80;3.78;;;;;;;2.81;92.28;98970.00;5014639;28;20037;-42
2021/12/10 05:26:59;;;;;;;17.65;3.42;;;;;;;2.78;92.05;98965.03;5013915;28;20018;-41
2021/12/10 05:29:24;;;;;;;15.27;3.83;;;;;;;2.87;92.24;98963.16;5014935;28;20128;-41
2021/12/10 05:31:50;;;;;;;14.32;3.72;;;;;;;2.86;91.75;98954.34;5028175;28;20225;-40
2021/12/10 05:34:17;;;;;;;6.32;2.90;;;;;;;2.84;91.27;98956.38;5013611;28;20029;-40
2021/12/10 05:36:43;;;;;;;11.23;3.45;;;;;;;2.93;91.10;98958.97;5014827;28;20038;-41
2021/12/10 05:39:10;;;;;;;10.82;2.97;;;;;;;2.95;90.97;98956.94;5014393;28;20390;-40
2021/12/10 05:41:35;;;;;;;15.68;3.35;;;;;;;2.99;91.12;98958.25;5044582;28;20030;-41
2021/12/10 05:44:01;;;;;;;13.43;3.20;;;;;;;2.92;90.76;98954.63;5014337;28;20030;-41
2021/12/10 05:46:26;;;;;;;16.10;3.30;;;;;;;2.94;91.12;98958.78;5014405;28;20375;-40
2021/12/10 05:48:52;;;;;;;11.43;3.38;;;;;;;2.91;91.72;98947.69;5014305;28;20034;-40
2021/12/10 05:51:18;;;;;;;8.27;3.33;;;;;;;2.85;91.55;98952.72;5014125;28;20033;-42
2021/12/10 05:53:43;;;;;;;15.02;3.30;;;;;;;2.88;91.00;98958.66;5012681;28;20113;-41
2021/12/10 05:56:09;;;;;;;11.32;3.30;;;;;;;2.83;91.93;98948.56;5014075;28;20073;-41
2021/12/10 05:58:35;;;;;;;9.73;3.55;;;;;;;2.85;92.24;98960.69;5014461;28;20030;-41
2021/12/10 06:01:09;;;;;;;7.80;3.40;;;;;;;2.88;92.14;98959.50;5015031;28;20030;-41
2021/12/10 06:03:36;;;;;;;10.30;3.70;;;;;;;2.93;92.23;98951.81;5015881;28;20029;-41
2021/12/10 06:06:02;;;;;;;10.27;2.78;;;;;;;2.86;92.34;98961.50;5015124;28;20030;-41
2021/12/10 06:08:29;;;;;;;9.63;3.35;;;;;;;2.81;92.36;98959.38;5013307;28;20034;-40
2021/12/10 06:10:57;;;;;;;12.70;3.42;;;;;;;2.81;92.68;98959.38;5028761;28;20026;-39
2021/12/10 06:13:23;;;;;;;13.27;3.80;;;;;;;2.75;93.08;98965.41;5011716;28;20038;-40
2021/12/10 06:15:48;;;;;;;13.82;3.60;;;;;;;2.75;93.26;98962.75;5012638;28;20026;-40
2021/12/10 06:18:14;;;;;;;15.88;3.25;;;;;;;2.72;93.88;98964.94;5012199;28;20041;-40
2021/12/10 06:20:44;;;;;;;14.85;4.35;;;;;;;2.68;94.28;98959.13;5013105;28;20065;-39
2021/12/10 06:23:09;;;;;;;17.58;5.10;;;;;;;2.69;94.10;98958.16;5013761;28;20030;-40
2021/12/10 06:25:35;;;;;;;12.38;4.15;;;;;;;2.74;94.50;98954.94;4998027;28;20034;-40
2021/12/10 06:28:02;;;;;;;10.18;3.97;;;;;;;2.72;94.20;98957.78;5025086;28;20172;-40
2021/12/10 06:30:32;;;;;;;11.80;4.05;;;;;;;2.70;94.48;98959.78;5012344;28;20034;-40
2021/12/10 06:33:00;;;;;;;14.32;4.20;;;;;;;2.70;94.46;98958.97;5012055;28;20034;-40
2021/12/10 06:35:26;;;;;;;;;;;;;;;2.72;94.20;98971.06;5007343;28;20041;-37
2021/12/10 06:37:53;;;;;;;14.13;3.95;;;;;;;2.69;94.79;98976.75;5012633;28;19909;-40
2021/12/10 06:40:20;;;;;;;15.82;4.03;;;;;;;2.65;94.58;98967.47;5013217;28;20033;-41
2021/12/10 06:42:46;;;;;;;12.07;3.87;;;;;;;2.68;94.22;98975.06;5011324;28;20032;-40
2021/12/10 06:45:14;;;;;;;9.68;3.67;;;;;;;2.61;94.06;98966.19;5011894;28;20277;-40
2021/12/10 06:47:41;;;;;;;17.27;4.50;;;;;;;2.57;94.13;98970.19;5012938;28;20040;-45
2021/12/10 06:50:08;;;;;;;16.45;4.50;;;;;;;2.58;94.29;98974.47;5013015;28;20338;-44
2021/12/10 06:52:33;;;;;;;23.13;4.78;;;;;;;2.60;94.61;98977.78;5012643;28;20386;-42
2021/12/10 06:54:59;;;;;;;16.48;4.90;;;;;;;2.55;95.58;98977.50;5012740;28;20026;-43
2021/12/10 06:57:25;;;;;;;16.92;4.38;;;;;;;2.54;95.26;98983.81;5012562;28;20504;-43
2021/12/10 06:59:50;;;;;;;19.65;4.75;;;;;;;2.58;95.00;98977.13;5012078;28;20026;-43
2021/12/10 07:02:15;;;;;;;14.85;4.57;;;;;;;2.55;95.08;98980.97;5004855;28;20030;-42
2021/12/10 07:04:41;;;;;;;12.38;4.90;;;;;;;2.54;94.66;98978.50;5005405;28;20040;-42
2021/12/10 07:07:10;;;;;;;15.18;4.15;;;;;;;2.54;95.38;98983.81;5008783;28;20022;-43
2021/12/10 07:09:37;;;;;;;11.70;3.90;;;;;;;2.51;94.87;98974.38;5010037;28;20021;-42
2021/12/10 07:12:03;;;;;;;14.63;6.60;;;;;;;2.50;94.83;98978.03;5008560;28;20124;-43
2021/12/10 07:14:29;;;;;;;17.27;4.30;;;;;;;2.48;94.85;98982.69;5008124;28;20490;-43
2021/12/10 07:16:54;;;;;;;18.17;5.22;;;;;;;2.46;95.81;98984.69;5006808;28;20049;-42
2021/12/10 07:19:19;;;;;;;14.55;5.38;;;;;;;2.46;96.13;98982.03;5019561;28;20046;-41
2021/12/10 07:21:45;;;;;;;14.27;4.75;;;;;;;2.49;95.91;98991.47;4991860;28;20026;-40
2021/12/10 07:24:14;;;;;;;9.30;4.75;;;;;;;2.48;95.93;98995.97;5009422;28;20061;-41
2021/12/10 07:26:40;;;;;;;18.20;4.65;;;;;;;2.49;95.82;99002.91;5011214;28;20116;-41
2021/12/10 07:29:07;;;;;;;15.00;5.22;;;;;;;2.48;95.97;98998.63;5011394;28;20042;-41
2021/12/10 07:31:33;;;;;;;21.63;5.18;;;;;;;2.49;95.83;99002.09;5009543;28;20493;-41
2021/12/10 07:33:59;;;;;;;21.88;5.25;;;;;;;2.48;95.76;99001.28;5011268;28;20021;-41
2021/12/10 07:36:25;;;;;;;16.10;5.07;;;;;;;2.49;95.86;98994.97;5011438;28;20396;-41
2021/12/10 07:38:52;;;;;;;18.23;5.57;;;;;;;2.48;96.74;99000.47;5011438;28;20053;-41
2021/12/10 07:41:17;;;;;;;13.30;6.38;;;;;;;2.50;95.91;99001.09;5011296;28;20022;-41
2021/12/10 07:43:42;;;;;;;16.30;5.35;;;;;;;2.51;96.43;99000.09;5011350;28;20101;-41
2021/12/10 07:46:12;;;;;;;17.65;5.93;;;;;;;2.51;96.54;99013.38;5009290;28;20093;-42
2021/12/10 07:48:38;;;;;;;14.35;5.88;;;;;;;2.56;96.64;99005.72;5009979;28;20029;-42
2021/12/10 07:51:06;;;;;;;12.82;5.20;;;;;;;2.55;96.39;99012.84;5011020;28;20026;-42
2021/12/10 07:53:33;;;;;;;20.25;6.70;;;;;;;2.45;96.55;99006.09;5010222;28;20029;-42
2021/12/10 07:56:01;;;;;;;17.92;6.32;;;;;;;2.53;95.80;99006.91;5011311;28;20026;-44
2021/12/10 07:58:27;;;;;;;14.38;6.43;;;;;;;2.52;96.43;99007.06;5011726;28;20034;-43
2021/12/10 08:00:53;;;;;;;18.48;6.50;;;;;;;2.52;96.53;99007.88;5010896;28;20032;-43
2021/12/10 08:03:19;;;;;;;16.90;8.02;;;;;;;2.49;96.78;99012.72;5010958;28;20038;-45
2021/12/10 08:05:44;;;;;;;11.35;6.35;;;;;;;2.48;96.56;99008.44;5011111;28;20041;-47
2021/12/10 08:08:10;;;;;;;18.73;7.15;;;;;;;2.49;96.34;99018.03;5011355;28;20030;-47
2021/12/10 08:10:38;;;;;;;15.48;7.40;;;;;;;2.48;95.97;99019.03;5011001;28;20509;-48
2021/12/10 08:13:04;;;;;;;19.92;8.25;;;;;;;2.45;96.59;99025.53;5011280;28;20026;-45
2021/12/10 08:15:29;;;;;;;11.63;6.68;;;;;;;2.42;96.23;99015.22;5010984;28;20145;-48
2021/12/10 08:17:54;;;;;;;11.82;7.80;;;;;;;2.39;96.27;99029.69;5010838;28;20030;-45
2021/12/10 08:20:23;;;;;;;22.10;9.75;;;;;;;2.48;96.32;99027.00;5014468;28;20141;-46
2021/12/10 08:22:50;;;;;;;16.77;7.60;;;;;;;2.50;96.40;99031.16;5014999;28;20034;-46
2021/12/10 08:25:17;;;;;;;21.35;7.65;;;;;;;2.43;96.88;99035.50;5014777;28;20386;-49
2021/12/10 08:27:42;;;;;;;19.25;7.57;;;;;;;2.38;96.92;99030.69;5013285;28;20022;-48
2021/12/10 08:30:11;;;;;;;20.83;8.45;;;;;;;2.38;96.92;99028.03;5014823;28;20030;-45
2021/12/10 08:32:38;;;;;;;17.50;8.57;;;;;;;2.39;96.62;99040.31;4996775;28;20140;-45
2021/12/10 08:35:06;;;;;;;18.52;8.68;;;;;;;2.37;97.35;99031.72;4997300;28;20489;-45
2021/12/10 08:37:31;;;;;;;17.17;9.00;;;;;;;2.48;96.52;99032.31;5014605;28;20036;-48
2021/12/10 08:39:57;;;;;;;15.05;8.65;;;;;;;2.47;96.87;99044.75;5014506;28;20104;-45
2021/12/10 08:42:23;;;;;;;29.20;8.90;;;;;;;2.41;96.49;99038.31;5014636;28;20029;-46
2021/12/10 08:44:48;;;;;;;19.27;8.25;;;;;;;2.46;96.85;99045.75;5014630;28;20038;-45
2021/12/10 08:47:15;;;;;;;21.63;8.90;;;;;;;2.49;96.18;99031.31;5013146;28;20034;-45
2021/12/10 08:49:41;;;;;;;24.42;9.70;;;;;;;2.50;96.54;99049.72;5013179;28;20029;-46
2021/12/10 08:52:08;;;;;;;16.67;8.57;;;;;;;2.55;96.45;99038.56;5014422;28;20108;-46
2021/12/10 08:54:34;;;;;;;21.90;8.38;;;;;;;2.55;96.41;99038.56;5014466;28;20022;-45
2021/12/10 08:57:00;;;;;;;22.75;9.38;;;;;;;2.62;96.88;99050.16;5014417;28;20452;-46
2021/12/10 08:59:25;;;;;;;23.35;9.18;;;;;;;2.48;96.65;99054.38;5012933;28;20038;-45
2021/12/10 09:01:54;;;;;;;27.23;9.85;;;;;;;2.58;96.55;99054.16;5013938;28;20042;-49
2021/12/10 09:04:20;;;;;;;26.45;9.95;;;;;;;2.60;96.55;99057.47;5014106;28;20030;-45
2021/12/10 09:06:50;;;;;;;23.08;8.07;;;;;;;2.61;96.94;99064.44;5014139;28;20076;-46
2021/12/10 09:09:17;;;;;;;20.45;8.32;;;;;;;2.56;96.51;99064.97;5013851;28;20037;-47
2021/12/10 09:11:47;;;;;;;20.33;8.30;;;;;;;2.56;96.64;99066.78;5014030;28;20398;-47
2021/12/10 09:14:15;;;;;;;16.67;8.43;;;;;;;2.63;96.73;99073.03;5012446;28;20034;-45
2021/12/10 09:16:40;;;;;;;23.08;8.77;;;;;;;2.55;96.86;99073.09;5012978;28;20064;-45
2021/12/10 09:19:10;;;;;;;26.65;9.43;;;;;;;2.53;96.49;99075.13;5013523;28;20037;-45
2021/12/10 09:21:36;;;;;;;23.40;8.50;;;;;;;2.60;96.71;99078.72;5013655;28;20422;-43
2021/12/10 09:24:05;;;;;;;18.77;8.63;;;;;;;2.65;96.81;99081.66;5013735;28;20026;-44
2021/12/10 09:26:34;;;;;;;19.23;8.60;;;;;;;2.61;96.43;99086.50;5012299;28;20042;-42
2021/12/10 09:28:59;;;;;;;;;;;;;;;2.60;96.28;99092.00;5013557;28;20478;-43
2021/12/10 09:31:24;;;;;;;21.55;9.75;;;;;;;2.62;96.29;99087.34;5013604;28;19909;-48
2021/12/10 09:33:55;;;;;;;17.52;8.95;;;;;;;2.68;96.76;99099.91;5013383;28;20030;-46
2021/12/10 09:36:21;;;;;;;23.90;9.13;;;;;;;2.63;96.21;99103.13;5013449;28;20033;-47
2021/12/10 09:38:46;;;;;;;19.15;8.68;;;;;;;2.56;96.57;99103.97;5013567;28;20022;-48
2021/12/10 09:41:12;;;;;;;17.95;8.65;;;;;;;2.58;96.46;99101.94;5013221;28;20022;-46
2021/12/10 09:43:38;;;;;;;16.92;8.30;;;;;;;2.68;96.24;99113.19;5013246;28;20038;-45
2021/12/10 09:46:04;;;;;;;19.17;9.20;;;;;;;2.62;96.81;99111.25;5013247;28;20026;-44
2021/12/10 09:48:31;;;;;;;17.15;8.02;;;;;;;2.60;96.25;99108.75;5013263;28;20076;-46
2021/12/10 09:51:03;;;;;;;21.40;7.60;;;;;;;2.56;96.92;99111.94;5013048;28;20080;-45
2021/12/10 09:53:30;;;;;;;21.60;8.65;;;;;;;2.59;96.93;99107.09;5013281;28;20030;-46
2021/12/10 09:55:56;;;;;;;17.07;8.77;;;;;;;2.65;97.07;99118.84;5013609;28;20022;-44
2021/12/10 09:58:22;;;;;;;21.52;7.85;;;;;;;2.62;96.35;99120.03;5013968;28;20021;-43
2021/12/10 10:00:55;;;;;;;16.05;7.15;;;;;;;2.61;96.25;99117.56;5014190;28;20565;-42
2021/12/10 10:03:23;;;;;;;19.95;7.72;;;;;;;2.65;96.47;99118.84;5014096;28;20041;-41
2021/12/10 10:05:48;;;;;;;;;;;;;;;2.68;96.61;99123.81;5013775;28;20109;-41
2021/12/10 10:08:17;;;;;;;18.10;6.65;;;;;;;2.63;95.92;99120.84;5013245;28;19964;-44
2021/12/10 10:10:45;;;;;;;16.10;7.50;;;;;;;2.71;96.00;99115.50;5014985;28;20416;-41
2021/12/10 10:13:13;;;;;;;13.70;7.07;;;;;;;2.72;96.60;99119.00;5013623;28;20033;-40
2021/12/10 10:15:42;;;;;;;16.50;6.75;;;;;;;2.69;96.71;99120.19;5013784;28;20026;-40
2021/12/10 10:18:10;;;;;;;22.30;6.95;;;;;;;2.68;96.21;99126.47;5012395;28;20035;-41
2021/12/10 10:20:38;;;;;;;20.60;6.93;;;;;;;2.73;96.80;99129.44;5013284;28;20046;-40
2021/12/10 10:23:05;;;;;;;28.67;7.53;;;;;;;2.88;96.72;99139.34;5013712;28;20029;-41
2021/12/10 10:25:31;;;;;;;25.60;7.60;;;;;;;2.83;96.65;99138.03;5013599;28;20061;-40
2021/12/10 10:27:56;;;;;;;16.40;7.50;;;;;;;2.89;96.48;99133.03;5013570;28;20316;-41
2021/12/10 10:30:30;;;;;;;23.40;6.70;;;;;;;2.82;96.58;99124.94;5013716;28;20157;-40
2021/12/10 10:32:58;;;;;;;20.55;7.63;;;;;;;2.90;96.42;99126.69;5013327;28;20033;-41
2021/12/10 10:35:28;;;;;;;25.10;8.85;;;;;;;2.86;95.83;99126.22;5013406;28;20420;-41
2021/12/10 10:37:55;;;;;;;21.10;7.80;;;;;;;2.87;95.97;99133.22;5013484;28;20113;-40
2021/12/10 10:40:25;;;;;;;21.05;7.95;;;;;;;2.84;95.70;99133.53;5013036;28;20108;-40
2021/12/10 10:42:51;;;;;;;24.17;8.20;;;;;;;2.86;95.79;99132.34;5012790;28;20462;-40
2021/12/10 10:45:23;;;;;;;22.98;8.00;;;;;;;2.95;96.29;99140.28;5013009;28;20030;-40
2021/12/10 10:47:49;;;;;;;22.20;8.82;;;;;;;2.92;95.64;99136.16;5012946;28;20469;-41
2021/12/10 10:50:23;;;;;;;23.10;9.15;;;;;;;2.96;96.06;99132.16;5012914;28;20029;-40
2021/12/10 10:52:53;;;;;;;23.88;8.95;;;;;;;3.04;95.83;99139.25;5013264;28;20029;-40
2021/12/10 10:55:28;;;;;;;20.58;8.45;;;;;;;3.06;96.76;99147.88;5012778;28;20501;-41
2021/12/10 10:57:57;;;;;;;23.60;8.50;;;;;;;3.05;96.17;99143.56;5013107;28;20060;-43
2021/12/10 11:00:29;;;;;;;22.50;7.60;;;;;;;3.02;95.88;99143.91;5011563;28;20466;-43
2021/12/10 11:03:00;;;;;;;15.88;7.50;;;;;;;3.00;95.79;99146.75;5013268;28;20053;-47
2021/12/10 11:05:26;;;;;;;27.58;8.55;;;;;;;3.00;95.73;99143.25;5013027;28;20083;-45
2021/12/10 11:07:54;;;;;;;12.65;6.70;;;;;;;3.01;96.11;99152.91;5011289;28;20030;-47
2021/12/10 11:10:39;;;;;;;;;;;;;;;3.03;95.59;99158.88;5013164;28;20407;-45
2021/12/10 11:13:23;;;;;;;15.77;6.18;;;;;;;2.91;96.07;99160.25;5011278;28;19920;-46
2021/12/10 11:15:59;;;;;;;20.52;7.93;;;;;;;3.00;95.51;99164.50;5013026;28;20389;-47
2021/12/10 11:18:25;;;;;;;18.85;7.28;;;;;;;2.93;96.22;99164.41;5012903;28;20030;-46
2021/12/10 11:20:50;;;;;;;23.25;7.70;;;;;;;2.89;95.67;99168.38;5012598;28;20046;-46
2021/12/10 11:23:20;;;;;;;27.77;11.73;;;;;;;3.00;95.68;99165.34;5012509;28;20465;-44
2021/12/10 11:25:50;;;;;;;25.85;10.07;;;;;;;2.94;95.63;99167.88;5012629;28;20026;-47
2021/12/10 11:28:26;;;;;;;24.02;8.70;;;;;;;2.95;96.11;99167.72;5011443;28;20032;-45
2021/12/10 11:31:02;;;;;;;12.02;7.53;;;;;;;2.92;95.69;99176.00;5011110;28;20030;-47
2021/12/10 11:33:34;;;;;;;16.83;7.90;;;;;;;2.97;95.77;99171.00;5012683;28;20026;-44
2021/12/10 11:36:06;;;;;;;26.65;9.63;;;;;;;3.02;95.51;99168.66;5012533;28;20028;-44
2021/12/10 11:38:32;;;;;;;19.30;6.97;;;;;;;2.94;95.44;99170.53;5012442;28;20030;-45
2021/12/10 11:41:01;;;;;;;18.85;8.10;;;;;;;2.98;95.52;99177.16;5011003;28;20390;-49
2021/12/10 11:46:33;;;;;;;25.20;9.30;;;;;;;3.03;95.70;99177.47;5012707;28;20038;-47
2021/12/10 11:49:00;;;;;;;24.92;7.90;;;;;;;3.11;95.61;99177.44;5012728;28;20026;-45